Terminal Aerodrome Forecast
Issued by NWS

Home | Current Version | Previous Version | Text Only | Print | Product List | Glossary On
Versions: 1 2 3 4 5 6 7 8 9 10 11 12 13 14 15 16 17 18 19
000
FTUS43 KAPX 011720
TAFPLN
TAF
KPLN 011720Z 0118/0218 02012G23KT 1/4SM +SHSN BLSN OVC006
     FM020000 34012G22KT 6SM -SHSN BLSN OVC015
     FM020300 33012G21KT P6SM VCSH OVC060
     FM020600 33009KT P6SM BKN100
     FM021600 32009KT P6SM BKN050=

USA.gov is the U.S. government's official web portal to all federal, state and local government web resources and services.